createdAt,value
2018-01-01T00:16:43.336Z,0.00
2018-01-01T00:17:43.345Z,0.00
2018-01-01T00:20:42.547Z,0.00
2018-01-01T04:25:08.412Z,0.00
2018-01-01T04:26:00.741Z,0.00
2018-01-01T04:27:00.688Z,0.00
2018-01-01T04:28:01.160Z,0.00
2018-01-01T04:29:01.167Z,0.00
2018-01-01T04:30:01.188Z,0.00
2018-01-01T04:31:01.132Z,0.00
2018-01-01T04:32:00.645Z,0.00
2018-01-01T04:33:00.547Z,0.00
2018-01-01T04:34:00.573Z,0.00
2018-01-01T04:35:01.045Z,0.00
2018-01-01T04:36:00.547Z,0.00
2018-01-01T04:37:00.369Z,0.00
2018-01-01T04:38:00.376Z,0.00
2018-01-01T04:39:00.393Z,0.00
2018-01-01T04:40:00.289Z,0.00
2018-01-01T04:41:00.431Z,0.00
2018-01-01T04:42:00.426Z,0.00
2018-01-01T04:43:00.354Z,0.00
2018-01-01T04:44:00.271Z,0.00
2018-01-01T04:45:00.054Z,0.00
2018-01-01T04:45:59.849Z,0.00
2018-01-01T04:46:59.848Z,0.00
2018-01-01T04:47:59.857Z,0.00
2018-01-01T04:48:59.815Z,0.00
2018-01-01T04:49:59.817Z,0.00
2018-01-01T04:50:59.752Z,0.00
2018-01-01T04:51:59.764Z,0.00
2018-01-01T04:52:59.743Z,0.00
2018-01-01T04:53:59.743Z,0.00
2018-01-01T04:54:59.731Z,0.00
2018-01-01T04:55:59.666Z,0.00
2018-01-01T04:56:59.637Z,0.00
2018-01-01T04:57:59.628Z,0.00
2018-01-01T04:58:59.604Z,0.00
2018-01-01T04:59:59.562Z,0.00
2018-01-01T05:00:59.552Z,0.00
2018-01-01T05:01:59.575Z,0.00
2018-01-01T05:02:59.490Z,0.00
2018-01-01T05:03:59.512Z,0.00
2018-01-01T05:04:59.480Z,0.00
2018-01-01T05:05:59.449Z,0.00
2018-01-01T05:06:59.502Z,0.00
2018-01-01T05:07:59.448Z,0.00
2018-01-01T05:08:59.418Z,0.00
2018-01-01T05:09:59.353Z,0.00
2018-01-01T05:10:59.339Z,0.00
2018-01-01T05:11:59.407Z,0.00
2018-01-01T05:13:00.273Z,0.00
2018-01-01T05:13:59.308Z,0.00
2018-01-01T05:14:59.302Z,0.00
2018-01-01T05:15:59.321Z,0.00
2018-01-01T05:16:59.216Z,0.00
2018-01-01T05:17:59.182Z,0.00
2018-01-01T05:18:59.170Z,0.00
2018-01-01T05:19:59.180Z,0.00
2018-01-01T05:20:59.165Z,0.00
2018-01-01T05:21:59.168Z,0.00
2018-01-01T05:22:59.100Z,0.00
2018-01-01T05:23:59.062Z,0.00
2018-01-01T05:24:59.028Z,0.00
2018-01-01T05:25:58.993Z,0.00
2018-01-01T05:26:59.019Z,0.00
2018-01-01T05:27:58.991Z,0.00
2018-01-01T05:28:59.008Z,0.00
2018-01-01T05:29:58.905Z,0.00
2018-01-01T05:30:58.895Z,0.00
2018-01-01T05:31:58.903Z,0.00
2018-01-01T05:32:58.853Z,0.00
2018-01-01T05:33:58.897Z,0.00
2018-01-01T05:34:58.864Z,0.00
2018-01-01T05:35:58.779Z,0.00
2018-01-01T05:36:58.765Z,0.00
2018-01-01T05:37:58.774Z,0.00
2018-01-01T05:38:58.790Z,0.00
2018-01-01T05:39:58.740Z,0.00
2018-01-01T05:40:58.733Z,0.00
2018-01-01T05:42:00.366Z,0.00
2018-01-01T05:42:58.624Z,0.00
2018-01-01T05:43:58.649Z,0.00
2018-01-01T05:44:58.609Z,0.00
2018-01-01T05:45:58.589Z,0.00
2018-01-01T05:46:58.574Z,0.00
2018-01-01T05:47:58.554Z,0.00
2018-01-01T05:48:58.547Z,0.00
2018-01-01T05:49:58.450Z,0.00
2018-01-01T05:50:58.496Z,0.00
2018-01-01T05:51:58.519Z,0.00
2018-01-01T05:52:58.474Z,0.00
2018-01-01T05:53:58.399Z,0.00
2018-01-01T05:54:58.432Z,0.00
2018-01-01T05:55:58.354Z,0.00
2018-01-01T05:56:58.380Z,0.00
2018-01-01T05:57:58.335Z,0.00
2018-01-01T05:58:58.863Z,0.00
2018-01-01T05:59:58.288Z,0.00
2018-01-01T06:00:58.221Z,0.00
2018-01-01T06:01:58.245Z,0.00
2018-01-01T06:02:58.234Z,0.00
2018-01-01T06:03:58.191Z,0.00
2018-01-01T06:04:58.171Z,0.00
2018-01-01T06:05:58.115Z,0.00
2018-01-01T06:06:58.138Z,0.00
2018-01-01T06:07:58.140Z,0.00
2018-01-01T06:08:58.038Z,0.00
2018-01-01T06:09:58.018Z,0.00
2018-01-01T06:10:58.082Z,0.00
2018-01-01T06:11:58.011Z,0.00
2018-01-01T06:12:57.977Z,0.00
2018-01-01T06:13:58.037Z,0.00
2018-01-01T06:14:57.974Z,0.00
2018-01-01T06:15:57.905Z,0.00
2018-01-01T06:16:57.847Z,0.00
2018-01-01T07:56:07.836Z,50.63
2018-01-01T08:07:41.681Z,28.13
2018-01-01T08:22:27.486Z,39.38
2018-01-01T08:26:27.030Z,45.00
2018-01-01T08:27:26.982Z,39.38
2018-01-01T08:28:26.980Z,33.75
2018-01-01T08:29:26.889Z,33.75
2018-01-01T08:30:26.566Z,33.75
2018-01-01T08:31:26.078Z,28.13
2018-01-01T08:32:26.374Z,28.13
2018-01-01T08:33:26.341Z,28.13
2018-01-01T08:34:26.041Z,33.75
2018-01-01T08:35:25.882Z,39.38
2018-01-01T08:36:26.269Z,39.38
2018-01-01T08:37:25.786Z,45.00
2018-01-01T08:38:25.759Z,45.00
2018-01-01T08:39:25.728Z,50.63
2018-01-01T08:40:25.699Z,50.63
2018-01-01T08:41:25.723Z,50.63
2018-01-01T08:42:25.660Z,45.00
2018-01-01T08:43:25.632Z,39.38
2018-01-01T08:44:25.642Z,50.63
2018-01-01T08:45:25.688Z,56.25
2018-01-01T08:46:25.668Z,50.63
2018-01-01T08:47:25.597Z,33.75
2018-01-01T08:48:25.611Z,28.13
2018-01-01T08:49:25.649Z,28.13
2018-01-01T08:50:25.518Z,22.50
2018-01-01T08:51:25.790Z,22.50
2018-01-01T08:52:25.470Z,28.13
2018-01-01T08:53:25.483Z,22.50
2018-01-01T08:54:25.446Z,22.50
2018-01-01T08:55:25.426Z,22.50
2018-01-01T08:56:25.385Z,22.50
2018-01-01T08:57:25.459Z,22.50
2018-01-01T08:58:25.316Z,16.88
2018-01-01T08:59:25.710Z,16.88
2018-01-01T09:00:25.447Z,16.88
2018-01-01T09:01:25.276Z,16.88
2018-01-01T09:02:25.261Z,11.25
2018-01-01T09:03:25.698Z,11.25
2018-01-01T09:04:25.226Z,16.88
2018-01-01T09:05:25.297Z,16.88
2018-01-01T09:06:25.224Z,22.50
2018-01-01T09:07:25.152Z,22.50
2018-01-01T09:08:25.197Z,28.13
2018-01-01T09:09:25.134Z,33.75
2018-01-01T09:10:25.128Z,39.38
2018-01-01T09:11:25.072Z,45.00
2018-01-01T09:12:25.287Z,45.00
2018-01-01T09:13:24.993Z,45.00
2018-01-01T09:14:25.023Z,45.00
2018-01-01T09:15:24.964Z,45.00
2018-01-01T09:16:24.937Z,50.63
2018-01-01T09:17:24.931Z,45.00
2018-01-01T09:18:24.900Z,45.00
2018-01-01T09:19:24.902Z,56.25
2018-01-01T09:20:24.935Z,67.50
2018-01-01T09:21:24.833Z,73.13
2018-01-01T09:22:25.542Z,101.25
2018-01-01T09:23:25.321Z,118.13
2018-01-01T09:24:24.909Z,73.13
2018-01-01T09:25:24.723Z,73.13
2018-01-01T09:26:24.764Z,73.13
2018-01-01T09:27:24.825Z,84.38
2018-01-01T09:28:24.778Z,129.38
2018-01-01T09:29:24.713Z,180.00
2018-01-01T09:30:24.663Z,208.13
2018-01-01T09:31:24.642Z,196.88
2018-01-01T09:32:24.685Z,163.13
2018-01-01T09:33:25.603Z,174.38
2018-01-01T09:34:24.589Z,196.88
2018-01-01T09:35:24.563Z,247.50
2018-01-01T09:36:24.824Z,309.38
2018-01-01T09:37:24.514Z,517.50
2018-01-01T09:38:24.521Z,483.75
2018-01-01T09:39:24.449Z,348.75
2018-01-01T09:40:24.462Z,421.88
2018-01-01T09:41:24.436Z,337.50
2018-01-01T09:44:01.912Z,168.75
2018-01-01T09:44:59.799Z,129.38
2018-01-01T09:46:00.473Z,101.25
2018-01-01T09:47:00.470Z,61.88
2018-01-01T09:48:01.958Z,45.00
2018-01-01T09:48:59.819Z,45.00
2018-01-01T09:49:59.886Z,61.88
2018-01-01T09:50:59.843Z,90.00
2018-01-01T09:52:00.338Z,123.75
2018-01-01T09:53:00.254Z,123.75
2018-01-01T09:53:59.459Z,101.25
2018-01-01T09:54:59.360Z,84.38
2018-01-01T09:56:00.046Z,106.88
2018-01-01T09:56:59.264Z,135.00
2018-01-01T09:57:59.276Z,191.25
2018-01-01T10:01:06.859Z,123.75
2018-01-01T10:02:07.100Z,140.63
2018-01-01T10:03:06.802Z,129.38
2018-01-01T10:04:06.749Z,123.75
2018-01-01T10:05:07.068Z,129.38
2018-01-01T10:07:48.010Z,129.38
2018-01-01T10:08:47.460Z,191.25
2018-01-01T10:09:47.824Z,286.88
2018-01-01T10:10:47.896Z,292.50
2018-01-01T10:11:47.846Z,264.38
2018-01-01T10:12:47.066Z,213.75
2018-01-01T10:13:47.211Z,202.50
2018-01-01T10:14:47.398Z,191.25
2018-01-01T10:15:47.249Z,236.25
2018-01-01T10:16:46.836Z,286.88
2018-01-01T10:17:46.864Z,427.50
2018-01-01T10:18:46.767Z,405.00
2018-01-01T10:19:46.964Z,315.00
2018-01-01T10:20:46.703Z,399.38
2018-01-01T10:21:46.781Z,405.00
2018-01-01T10:22:46.851Z,393.75
2018-01-01T10:23:46.691Z,348.75
2018-01-01T10:24:46.758Z,298.13
2018-01-01T10:25:47.040Z,258.75
2018-01-01T10:26:46.701Z,281.25
2018-01-01T10:27:46.667Z,298.13
2018-01-01T10:28:46.851Z,320.63
2018-01-01T10:29:46.682Z,309.38
2018-01-01T10:30:46.827Z,331.88
2018-01-01T10:31:46.600Z,303.75
2018-01-01T10:32:46.790Z,281.25
2018-01-01T10:33:46.598Z,275.63
2018-01-01T10:34:46.428Z,225.00
2018-01-01T10:35:46.549Z,219.38
2018-01-01T10:36:46.515Z,264.38
2018-01-01T10:37:46.483Z,253.13
2018-01-01T10:38:48.094Z,286.88
2018-01-01T10:39:46.465Z,270.00
2018-01-01T10:40:46.351Z,281.25
2018-01-01T10:41:46.361Z,230.63
2018-01-01T10:42:46.331Z,151.88
2018-01-01T10:43:46.277Z,185.63
2018-01-01T10:44:46.280Z,196.88
2018-01-01T10:45:46.239Z,208.13
2018-01-01T10:46:46.247Z,219.38
2018-01-01T10:47:46.222Z,213.75
2018-01-01T10:48:46.203Z,185.63
2018-01-01T10:49:46.303Z,202.50
2018-01-01T10:50:46.150Z,275.63
2018-01-01T10:51:46.102Z,298.13
2018-01-01T10:52:46.155Z,298.13
2018-01-01T10:53:46.058Z,315.00
2018-01-01T10:54:46.255Z,309.38
2018-01-01T10:55:46.059Z,213.75
2018-01-01T10:56:46.121Z,230.63
2018-01-01T10:57:46.055Z,219.38
2018-01-01T10:58:46.582Z,225.00
2018-01-01T10:59:45.930Z,196.88
2018-01-01T11:00:45.927Z,168.75
2018-01-01T11:01:45.909Z,202.50
2018-01-01T11:02:45.937Z,202.50
2018-01-01T11:03:45.935Z,258.75
2018-01-01T11:04:45.934Z,315.00
2018-01-01T11:05:45.833Z,241.88
2018-01-01T11:06:45.819Z,281.25
2018-01-01T11:07:45.828Z,343.13
2018-01-01T11:08:45.792Z,360.00
2018-01-01T11:09:45.729Z,410.63
2018-01-01T11:10:45.730Z,523.13
2018-01-01T11:11:45.726Z,461.25
2018-01-01T11:12:45.713Z,534.38
2018-01-01T11:13:46.527Z,444.38
2018-01-01T11:14:45.645Z,337.50
2018-01-01T11:15:45.649Z,337.50
2018-01-01T11:16:45.687Z,360.00
2018-01-01T11:17:45.565Z,371.25
2018-01-01T11:18:45.592Z,444.38
2018-01-01T11:19:46.275Z,450.00
2018-01-01T11:20:45.527Z,427.50
2018-01-01T11:21:45.615Z,444.38
2018-01-01T11:22:45.622Z,348.75
2018-01-01T11:23:45.451Z,360.00
2018-01-01T11:24:45.491Z,298.13
2018-01-01T11:25:47.639Z,292.50
2018-01-01T11:26:46.986Z,247.50
2018-01-01T11:27:45.614Z,281.25
2018-01-01T11:28:45.680Z,303.75
2018-01-01T11:29:45.468Z,331.88
2018-01-01T11:30:45.381Z,331.88
2018-01-01T11:31:45.292Z,343.13
2018-01-01T11:32:45.252Z,343.13
2018-01-01T11:33:45.280Z,331.88
2018-01-01T11:34:46.101Z,376.88
2018-01-01T11:35:45.204Z,405.00
2018-01-01T11:36:45.323Z,348.75
2018-01-01T11:37:45.209Z,253.13
2018-01-01T11:38:45.136Z,202.50
2018-01-01T11:39:45.299Z,196.88
2018-01-01T11:40:45.259Z,230.63
2018-01-01T11:41:45.103Z,275.63
2018-01-01T11:42:49.163Z,270.00
2018-01-01T11:43:45.561Z,219.38
2018-01-01T11:44:45.113Z,191.25
2018-01-01T11:45:45.563Z,236.25
2018-01-01T11:46:44.994Z,253.13
2018-01-01T11:47:45.589Z,236.25
2018-01-01T11:48:45.028Z,281.25
2018-01-01T11:49:44.946Z,270.00
2018-01-01T11:50:44.920Z,241.88
2018-01-01T11:51:44.911Z,286.88
2018-01-01T11:52:44.892Z,326.25
2018-01-01T11:53:44.851Z,241.88
2018-01-01T11:54:44.842Z,185.63
2018-01-01T11:55:44.833Z,151.88
2018-01-01T11:56:44.801Z,151.88
2018-01-01T11:57:44.842Z,168.75
2018-01-01T11:58:44.775Z,196.88
2018-01-01T11:59:44.746Z,236.25
2018-01-01T12:00:44.709Z,354.38
2018-01-01T12:01:44.760Z,281.25
2018-01-01T12:02:44.707Z,331.88
2018-01-01T12:03:44.672Z,309.38
2018-01-01T12:04:47.558Z,343.13
2018-01-01T12:05:44.606Z,241.88
2018-01-01T12:06:44.670Z,236.25
2018-01-01T12:07:44.615Z,241.88
2018-01-01T12:08:44.553Z,236.25
2018-01-01T12:09:44.539Z,286.88
2018-01-01T12:10:44.568Z,320.63
2018-01-01T12:11:44.518Z,399.38
2018-01-01T12:12:44.518Z,416.25
2018-01-01T12:13:44.445Z,360.00
2018-01-01T12:14:44.438Z,292.50
2018-01-01T12:15:44.452Z,253.13
2018-01-01T12:16:44.499Z,241.88
2018-01-01T12:17:44.379Z,241.88
2018-01-01T12:18:44.485Z,225.00
2018-01-01T12:19:45.312Z,202.50
2018-01-01T12:20:44.385Z,388.13
2018-01-01T12:21:44.387Z,455.63
2018-01-01T12:22:44.309Z,416.25
2018-01-01T12:23:44.274Z,343.13
2018-01-01T12:24:44.247Z,348.75
2018-01-01T12:25:44.229Z,551.25
2018-01-01T12:26:44.242Z,517.50
2018-01-01T12:27:44.192Z,343.13
2018-01-01T12:28:44.214Z,292.50
2018-01-01T12:29:44.210Z,258.75
2018-01-01T12:30:44.146Z,208.13
2018-01-01T12:31:44.150Z,219.38
2018-01-01T12:32:44.123Z,337.50
2018-01-01T12:33:44.096Z,298.13
2018-01-01T12:34:44.749Z,236.25
2018-01-01T12:35:44.009Z,191.25
2018-01-01T12:36:44.076Z,174.38
2018-01-01T12:37:44.003Z,174.38
2018-01-01T12:38:44.011Z,196.88
2018-01-01T12:39:43.980Z,309.38
2018-01-01T12:40:43.992Z,343.13
2018-01-01T12:41:44.034Z,466.88
2018-01-01T12:42:43.903Z,337.50
2018-01-01T12:43:43.973Z,388.13
2018-01-01T12:44:43.933Z,348.75
2018-01-01T12:45:43.920Z,298.13
2018-01-01T12:46:43.854Z,281.25
2018-01-01T12:47:43.845Z,286.88
2018-01-01T12:48:43.826Z,258.75
2018-01-01T12:49:43.839Z,241.88
2018-01-01T12:50:43.760Z,208.13
2018-01-01T12:51:43.765Z,180.00
2018-01-01T12:52:43.778Z,151.88
2018-01-01T12:53:43.846Z,112.50
2018-01-01T12:54:43.686Z,95.63
2018-01-01T12:55:43.766Z,95.63
2018-01-01T12:56:43.660Z,106.88
2018-01-01T12:57:43.647Z,151.88
2018-01-01T12:58:43.704Z,180.00
2018-01-01T12:59:43.632Z,185.63
2018-01-01T13:00:43.546Z,208.13
2018-01-01T13:01:43.748Z,202.50
2018-01-01T13:02:43.542Z,180.00
2018-01-01T13:03:44.210Z,123.75
2018-01-01T13:04:43.538Z,118.13
2018-01-01T13:05:43.613Z,123.75
2018-01-01T13:06:43.447Z,106.88
2018-01-01T13:07:43.462Z,90.00
2018-01-01T13:08:43.427Z,84.38
2018-01-01T13:09:43.419Z,73.13
2018-01-01T13:10:43.379Z,73.13
2018-01-01T13:11:43.309Z,78.75
2018-01-01T13:12:43.370Z,95.63
2018-01-01T13:13:43.312Z,90.00
2018-01-01T13:14:43.281Z,95.63
2018-01-01T13:15:43.264Z,118.13
2018-01-01T13:16:43.233Z,118.13
2018-01-01T13:17:43.269Z,129.38
2018-01-01T13:18:43.246Z,168.75
2018-01-01T13:19:43.209Z,202.50
2018-01-01T13:20:43.249Z,540.00
2018-01-01T13:21:43.151Z,399.38
2018-01-01T13:22:43.173Z,208.13
2018-01-01T13:23:43.610Z,286.88
2018-01-01T13:24:43.394Z,320.63
2018-01-01T13:25:44.613Z,202.50
2018-01-01T13:26:43.081Z,416.25
2018-01-01T13:27:43.229Z,202.50
2018-01-01T13:28:43.206Z,241.88
2018-01-01T13:29:42.984Z,174.38
2018-01-01T13:30:43.067Z,135.00
2018-01-01T13:31:42.956Z,123.75
2018-01-01T13:32:43.175Z,123.75
2018-01-01T13:33:43.061Z,101.25
2018-01-01T13:34:43.001Z,106.88
2018-01-01T13:35:42.887Z,118.13
2018-01-01T13:36:42.834Z,95.63
2018-01-01T13:37:42.934Z,84.38
2018-01-01T13:38:42.800Z,84.38
2018-01-01T13:39:42.864Z,106.88
2018-01-01T13:40:42.818Z,123.75
2018-01-01T13:41:42.753Z,118.13
2018-01-01T13:42:42.867Z,95.63
2018-01-01T13:43:42.887Z,95.63
2018-01-01T13:44:42.688Z,101.25
2018-01-01T13:45:42.648Z,90.00
2018-01-01T13:46:42.706Z,90.00
2018-01-01T13:47:42.645Z,78.75
2018-01-01T13:48:42.600Z,78.75
2018-01-01T13:49:42.642Z,90.00
2018-01-01T13:50:42.574Z,106.88
2018-01-01T13:51:42.620Z,123.75
2018-01-01T13:52:42.506Z,129.38
2018-01-01T13:53:42.554Z,123.75
2018-01-01T13:54:42.524Z,112.50
2018-01-01T13:55:42.466Z,90.00
2018-01-01T13:56:42.452Z,78.75
2018-01-01T13:57:42.393Z,67.50
2018-01-01T13:58:42.364Z,67.50
2018-01-01T13:59:42.357Z,73.13
2018-01-01T14:00:42.371Z,67.50
2018-01-01T14:01:42.506Z,61.88
2018-01-01T14:02:42.571Z,61.88
2018-01-01T14:03:42.363Z,61.88
2018-01-01T14:04:42.353Z,56.25
2018-01-01T14:05:42.309Z,56.25
2018-01-01T14:06:42.314Z,50.63
2018-01-01T14:07:42.412Z,50.63
2018-01-01T14:08:42.215Z,50.63
2018-01-01T14:09:47.179Z,45.00
2018-01-01T14:10:42.148Z,50.63
2018-01-01T14:11:42.601Z,50.63
2018-01-01T14:12:42.123Z,56.25
2018-01-01T14:13:42.125Z,61.88
2018-01-01T14:14:42.086Z,61.88
2018-01-01T14:15:42.094Z,61.88
2018-01-01T14:16:42.129Z,67.50
2018-01-01T14:17:42.006Z,73.13
2018-01-01T14:18:42.006Z,78.75
2018-01-01T14:19:42.057Z,78.75
2018-01-01T14:20:42.044Z,84.38
2018-01-01T14:21:42.017Z,84.38
2018-01-01T14:22:41.962Z,78.75
2018-01-01T14:23:41.909Z,78.75
2018-01-01T14:24:41.927Z,78.75
2018-01-01T14:25:41.810Z,78.75
2018-01-01T14:26:41.817Z,78.75
2018-01-01T14:27:41.789Z,73.13
2018-01-01T14:28:41.803Z,73.13
2018-01-01T14:29:41.812Z,73.13
2018-01-01T14:30:41.784Z,67.50
2018-01-01T14:31:41.711Z,67.50
2018-01-01T14:32:41.708Z,61.88
2018-01-01T14:33:41.714Z,56.25
2018-01-01T14:34:41.719Z,56.25
2018-01-01T14:35:41.777Z,50.63
2018-01-01T14:36:41.597Z,45.00
2018-01-01T14:37:41.651Z,45.00
2018-01-01T14:38:41.640Z,45.00
2018-01-01T14:39:41.546Z,45.00
2018-01-01T14:40:41.513Z,39.38
2018-01-01T14:41:41.480Z,39.38
2018-01-01T14:42:41.517Z,39.38
2018-01-01T14:43:41.486Z,33.75
2018-01-01T14:44:41.467Z,33.75
2018-01-01T14:45:41.431Z,28.13
2018-01-01T14:46:41.558Z,28.13
2018-01-01T14:47:41.709Z,22.50
2018-01-01T14:48:41.397Z,22.50
2018-01-01T14:49:41.434Z,22.50
2018-01-01T14:50:41.429Z,22.50
2018-01-01T14:51:41.264Z,22.50
2018-01-01T14:52:41.831Z,22.50
2018-01-01T14:53:41.276Z,16.88
2018-01-01T14:54:41.217Z,16.88
2018-01-01T14:55:41.184Z,16.88
2018-01-01T14:56:41.199Z,16.88
2018-01-01T14:57:41.261Z,16.88
2018-01-01T14:58:41.318Z,16.88
2018-01-01T14:59:41.102Z,16.88
2018-01-01T15:00:41.174Z,11.25
2018-01-01T15:01:41.105Z,11.25
2018-01-01T15:02:41.035Z,11.25
2018-01-01T15:03:41.076Z,11.25
2018-01-01T15:04:41.121Z,11.25
2018-01-01T15:05:41.103Z,11.25
2018-01-01T15:06:41.034Z,11.25
2018-01-01T15:07:40.921Z,5.63
2018-01-01T15:08:41.095Z,5.63
2018-01-01T15:09:40.935Z,5.63
2018-01-01T15:10:40.935Z,5.63
2018-01-01T15:11:40.851Z,5.63
2018-01-01T15:12:41.053Z,5.63
2018-01-01T15:13:40.963Z,5.63
2018-01-01T15:15:01.846Z,0.00
2018-01-01T15:15:42.362Z,0.00
2018-01-01T15:16:40.868Z,0.00
2018-01-01T15:17:41.244Z,0.00
2018-01-01T15:18:40.858Z,0.00
2018-01-01T15:19:40.743Z,0.00
2018-01-01T15:20:40.777Z,0.00
2018-01-01T15:21:40.776Z,0.00
2018-01-01T15:22:41.680Z,0.00
2018-01-01T16:06:34.832Z,0.00
2018-01-01T16:17:39.789Z,0.00
2018-01-01T16:18:31.458Z,0.00
2018-01-01T16:19:32.590Z,0.00
2018-01-01T16:22:10.847Z,0.00
2018-01-01T16:23:10.817Z,0.00
2018-01-01T16:24:10.856Z,0.00
2018-01-01T16:25:10.860Z,0.00
2018-01-01T16:26:10.579Z,0.00
2018-01-01T16:27:11.170Z,0.00
2018-01-01T16:28:10.451Z,0.00
2018-01-01T16:29:10.426Z,0.00
2018-01-01T16:30:10.421Z,0.00
2018-01-01T16:31:10.369Z,0.00
2018-01-01T16:32:10.327Z,0.00
2018-01-01T16:33:10.513Z,0.00
2018-01-01T16:34:10.280Z,0.00
2018-01-01T16:35:10.288Z,0.00
2018-01-01T22:26:14.921Z,0.00
2018-01-01T22:27:07.752Z,0.00
2018-01-01T22:28:07.262Z,0.00
2018-01-01T22:29:07.762Z,0.00
2018-01-01T22:30:07.548Z,0.00
2018-01-01T22:31:07.354Z,0.00
2018-01-01T22:32:06.877Z,0.00
2018-01-01T22:33:07.836Z,0.00
2018-01-01T22:34:19.046Z,0.00
